createdAt,value
2019-04-07T00:04:41.427Z,5.80
2019-04-07T00:07:15.513Z,5.80
2019-04-07T00:09:49.275Z,5.70
2019-04-07T00:12:23.005Z,5.70
2019-04-07T00:14:56.732Z,5.70
2019-04-07T00:21:07.532Z,5.60
2019-04-07T00:23:41.746Z,5.50
2019-04-07T00:26:15.476Z,5.50
2019-04-07T00:28:49.807Z,5.50
2019-04-07T00:31:23.991Z,5.40
2019-04-07T00:33:58.203Z,5.40
2019-04-07T00:36:32.038Z,5.40
2019-04-07T00:39:07.973Z,5.40
2019-04-07T00:41:41.903Z,5.40
2019-04-07T00:44:15.618Z,5.40
2019-04-07T00:46:49.880Z,5.40
2019-04-07T00:49:23.630Z,5.30
2019-04-07T00:51:58.473Z,5.30
2019-04-07T00:54:32.621Z,5.30
2019-04-07T00:57:06.662Z,5.30
2019-04-07T00:59:40.838Z,5.30
2019-04-07T01:02:14.882Z,5.30
2019-04-07T01:04:48.569Z,5.30
2019-04-07T01:07:22.283Z,5.30
2019-04-07T01:09:55.962Z,5.20
2019-04-07T01:12:30.172Z,5.20
2019-04-07T01:15:05.962Z,5.20
2019-04-07T01:17:39.753Z,5.20
2019-04-07T01:20:14.065Z,5.10
2019-04-07T01:22:48.520Z,5.10
2019-04-07T01:25:22.560Z,5.10
2019-04-07T01:27:56.628Z,5.00
2019-04-07T01:30:30.431Z,5.00
2019-04-07T01:33:04.024Z,5.00
2019-04-07T01:35:47.264Z,5.00
2019-04-07T01:38:13.668Z,5.00
2019-04-07T01:40:55.267Z,5.00
2019-04-07T01:43:30.698Z,4.90
2019-04-07T01:46:06.390Z,4.90
2019-04-07T01:48:42.234Z,4.90
2019-04-07T01:51:36.379Z,4.90
2019-04-07T01:54:17.560Z,4.90
2019-04-07T01:57:02.334Z,4.90
2019-04-07T01:59:39.177Z,4.80
2019-04-07T02:06:05.034Z,4.80
2019-04-07T02:08:46.401Z,4.80
2019-04-07T02:11:38.603Z,4.80
2019-04-07T02:14:30.291Z,4.80
2019-04-07T02:17:08.170Z,4.80
2019-04-07T02:19:43.416Z,4.80
2019-04-07T02:22:27.649Z,4.80
2019-04-07T02:25:06.354Z,4.70
2019-04-07T02:27:41.853Z,4.70
2019-04-07T02:30:23.731Z,4.70
2019-04-07T02:33:04.739Z,4.70
2019-04-07T02:36:13.570Z,4.70
2019-04-07T02:38:38.831Z,4.70
2019-04-07T02:41:15.790Z,4.70
2019-04-07T02:43:53.973Z,4.70
2019-04-07T02:49:30.247Z,4.60
2019-04-07T02:52:09.127Z,4.60
2019-04-07T02:54:47.431Z,4.50
2019-04-07T02:57:37.790Z,4.50
2019-04-07T03:00:13.944Z,4.50
2019-04-07T03:06:47.524Z,4.40
2019-04-07T03:09:34.909Z,4.40
2019-04-07T03:12:13.764Z,4.30
2019-04-07T03:15:05.578Z,4.40
2019-04-07T03:17:43.665Z,4.30
2019-04-07T03:20:19.033Z,4.30
2019-04-07T03:23:10.384Z,4.30
2019-04-07T03:25:48.671Z,4.30
2019-04-07T03:28:42.315Z,4.30
2019-04-07T03:31:24.031Z,4.30
2019-04-07T03:34:01.911Z,4.30
2019-04-07T03:37:13.104Z,4.30
2019-04-07T03:39:24.701Z,4.20
2019-04-07T03:42:12.506Z,4.10
2019-04-07T03:44:47.842Z,4.10
2019-04-07T03:51:03.897Z,4.10
2019-04-07T03:53:51.967Z,4.10
2019-04-07T03:56:43.818Z,4.00
2019-04-07T03:59:28.940Z,4.00
2019-04-07T04:05:44.183Z,4.00
2019-04-07T04:08:25.372Z,3.90
2019-04-07T04:11:00.732Z,4.00
2019-04-07T04:13:52.859Z,4.00
2019-04-07T04:16:27.166Z,4.00
2019-04-07T04:22:39.396Z,4.10
2019-04-07T04:25:13.817Z,4.20
2019-04-07T04:27:48.518Z,4.20
2019-04-07T04:30:23.832Z,4.30
2019-04-07T04:32:57.532Z,4.40
2019-04-07T04:35:32.213Z,4.40
2019-04-07T04:38:06.182Z,4.50
2019-04-07T04:40:40.826Z,4.60
2019-04-07T04:43:15.535Z,4.70
2019-04-07T04:45:50.290Z,4.70
2019-04-07T04:48:24.308Z,4.80
2019-04-07T04:50:58.159Z,4.90
2019-04-07T04:53:32.068Z,4.90
2019-04-07T04:56:05.763Z,5.00
2019-04-07T04:58:39.365Z,5.10
2019-04-07T05:01:16.226Z,5.10
2019-04-07T05:03:50.698Z,5.20
2019-04-07T05:06:25.152Z,5.30
2019-04-07T05:08:59.291Z,5.40
2019-04-07T05:11:34.446Z,5.40
2019-04-07T05:14:09.028Z,5.50
2019-04-07T05:16:42.621Z,5.50
2019-04-07T05:19:16.337Z,5.50
2019-04-07T05:21:50.465Z,5.50
2019-04-07T05:24:24.728Z,5.60
2019-04-07T05:26:58.613Z,5.70
2019-04-07T05:29:32.482Z,5.80
2019-04-07T05:32:06.903Z,5.90
2019-04-07T05:34:41.179Z,6.00
2019-04-07T05:37:14.812Z,6.10
2019-04-07T05:39:48.509Z,6.20
2019-04-07T05:42:22.546Z,6.30
2019-04-07T05:44:56.452Z,6.40
2019-04-07T05:50:14.597Z,6.60
2019-04-07T05:52:48.847Z,6.70
2019-04-07T05:55:24.147Z,6.70
2019-04-07T05:57:58.641Z,6.80
2019-04-07T06:00:32.604Z,6.90
2019-04-07T06:06:55.000Z,7.20
2019-04-07T06:09:27.936Z,7.30
2019-04-07T06:12:06.008Z,7.40
2019-04-07T06:14:38.021Z,7.60
2019-04-07T06:17:12.049Z,7.70
2019-04-07T06:23:33.011Z,8.10
2019-04-07T06:26:11.407Z,8.30
2019-04-07T06:28:42.250Z,8.50
2019-04-07T06:31:15.942Z,8.70
2019-04-07T06:33:49.914Z,8.90
2019-04-07T06:36:26.140Z,9.00
2019-04-07T06:38:59.356Z,9.30
2019-04-07T06:41:34.231Z,10.40
2019-04-07T06:44:13.270Z,12.60
2019-04-07T06:46:58.574Z,15.10
2019-04-07T06:49:45.199Z,17.60
2019-04-07T06:52:30.281Z,19.90
2019-04-07T06:55:16.894Z,21.70
2019-04-07T06:58:06.115Z,23.30
2019-04-07T07:00:58.329Z,24.70
2019-04-07T07:04:27.523Z,25.60
2019-04-07T07:07:06.541Z,25.30
2019-04-07T07:09:45.884Z,24.80
2019-04-07T07:12:32.821Z,23.90
2019-04-07T07:15:04.588Z,24.40
2019-04-07T07:21:07.577Z,24.40
2019-04-07T07:23:48.041Z,25.40
2019-04-07T07:26:21.262Z,25.60
2019-04-07T07:28:54.240Z,24.40
2019-04-07T07:31:28.314Z,22.50
2019-04-07T07:37:38.939Z,21.10
2019-04-07T07:40:16.112Z,20.30
2019-04-07T07:42:50.004Z,20.40
2019-04-07T07:45:23.960Z,19.90
2019-04-07T07:47:57.768Z,19.30
2019-04-07T07:50:31.744Z,18.70
2019-04-07T07:53:05.802Z,18.00
2019-04-07T07:55:40.196Z,17.70
2019-04-07T07:58:14.034Z,17.10
2019-04-07T08:00:47.743Z,16.80
2019-04-07T08:07:01.975Z,16.40
2019-04-07T08:09:34.513Z,16.00
2019-04-07T08:12:08.340Z,15.70
2019-04-07T08:14:42.639Z,15.50
2019-04-07T08:17:17.255Z,15.30
2019-04-07T08:23:28.674Z,15.20
2019-04-07T08:26:05.471Z,15.60
2019-04-07T08:28:39.255Z,15.70
2019-04-07T08:31:13.280Z,15.80
2019-04-07T08:33:50.238Z,16.10
2019-04-07T08:36:22.716Z,16.20
2019-04-07T08:38:58.483Z,16.10
2019-04-07T08:41:32.563Z,16.20
2019-04-07T08:44:07.054Z,15.80
2019-04-07T08:46:42.882Z,15.30
2019-04-07T08:49:16.935Z,14.90
2019-04-07T08:51:50.984Z,14.70
2019-04-07T08:54:24.693Z,14.50
2019-04-07T08:56:59.126Z,14.30
2019-04-07T08:59:32.946Z,14.20
2019-04-07T09:02:07.597Z,14.20
2019-04-07T09:04:44.225Z,14.20
2019-04-07T09:07:17.510Z,14.10
2019-04-07T09:09:51.442Z,14.20
2019-04-07T09:12:28.951Z,14.00
2019-04-07T09:15:03.982Z,14.00
2019-04-07T09:17:46.034Z,14.20
2019-04-07T09:20:23.943Z,14.10
2019-04-07T09:23:02.967Z,14.10
2019-04-07T09:25:44.788Z,14.10
2019-04-07T09:28:24.020Z,14.20
2019-04-07T09:31:16.349Z,14.40
2019-04-07T09:37:31.417Z,14.50
2019-04-07T09:40:09.274Z,14.70
2019-04-07T09:42:50.795Z,14.90
2019-04-07T09:45:38.579Z,15.00
2019-04-07T09:48:22.159Z,14.70
2019-04-07T09:54:34.673Z,14.40
2019-04-07T09:57:10.730Z,14.50
2019-04-07T09:59:58.148Z,14.50
2019-04-07T10:02:35.442Z,14.50
2019-04-07T10:08:52.227Z,14.50
2019-04-07T10:11:27.535Z,14.50
2019-04-07T10:14:03.390Z,14.50
2019-04-07T10:16:39.454Z,14.50
2019-04-07T10:19:24.266Z,14.70
2019-04-07T10:22:02.326Z,14.70
2019-04-07T10:24:55.092Z,14.70
2019-04-07T10:27:46.942Z,14.70
2019-04-07T10:30:29.414Z,14.60
2019-04-07T10:33:07.758Z,14.50
2019-04-07T10:35:43.117Z,14.40
2019-04-07T10:38:35.217Z,14.40
2019-04-07T10:41:19.386Z,14.50
2019-04-07T10:43:55.724Z,14.50
2019-04-07T10:46:31.391Z,14.40
2019-04-07T10:52:13.253Z,14.50
2019-04-07T10:54:54.195Z,14.60
2019-04-07T10:57:35.454Z,14.50
2019-04-07T11:00:12.359Z,14.60
2019-04-07T11:02:57.188Z,14.70
2019-04-07T11:06:25.926Z,14.80
2019-04-07T11:09:17.817Z,14.70
2019-04-07T11:12:05.066Z,14.70
2019-04-07T11:14:40.571Z,14.70
2019-04-07T11:17:19.396Z,14.70
2019-04-07T11:20:54.668Z,14.70
2019-04-07T11:23:39.201Z,14.70
2019-04-07T11:26:20.850Z,14.90
2019-04-07T11:29:02.747Z,14.80
2019-04-07T11:31:38.525Z,14.90
2019-04-07T11:37:23.360Z,15.00
2019-04-07T11:40:02.210Z,15.00
2019-04-07T11:42:38.360Z,15.10
2019-04-07T11:45:20.761Z,15.00
2019-04-07T11:48:12.975Z,15.00
2019-04-07T11:51:13.023Z,15.20
2019-04-07T11:53:51.280Z,15.20
2019-04-07T11:56:26.680Z,15.30
2019-04-07T11:59:07.467Z,15.40
2019-04-07T12:01:46.842Z,15.40
2019-04-07T12:04:34.485Z,15.40
2019-04-07T12:07:20.341Z,15.40
2019-04-07T12:10:12.569Z,15.40
2019-04-07T12:12:48.305Z,15.40
2019-04-07T12:15:35.825Z,15.20
2019-04-07T12:18:18.976Z,15.10
2019-04-07T12:22:03.455Z,15.00
2019-04-07T12:24:39.781Z,15.00
2019-04-07T12:27:16.145Z,15.10
2019-04-07T12:30:01.136Z,15.10
2019-04-07T12:32:45.478Z,15.20
2019-04-07T12:39:03.989Z,15.30
2019-04-07T12:41:40.071Z,15.30
2019-04-07T12:44:34.289Z,15.40
2019-04-07T12:47:10.229Z,15.30
2019-04-07T12:49:48.723Z,15.20
2019-04-07T12:55:56.935Z,15.30
2019-04-07T12:58:34.227Z,15.20
2019-04-07T13:01:16.248Z,15.10
2019-04-07T13:03:47.277Z,15.20
2019-04-07T13:06:22.968Z,15.30
2019-04-07T13:08:58.290Z,15.20
2019-04-07T13:11:37.230Z,15.00
2019-04-07T13:14:14.048Z,15.00
2019-04-07T13:17:00.133Z,15.00
2019-04-07T13:19:41.807Z,15.10
2019-04-07T13:22:19.339Z,15.00
2019-04-07T13:24:57.051Z,15.00
2019-04-07T13:27:50.116Z,15.10
2019-04-07T13:30:35.618Z,15.00
2019-04-07T13:33:13.976Z,15.00
2019-04-07T13:39:33.347Z,15.30
2019-04-07T13:42:14.238Z,15.30
2019-04-07T13:45:10.170Z,15.40
2019-04-07T13:47:48.842Z,15.20
2019-04-07T13:50:24.576Z,15.20
2019-04-07T13:53:16.477Z,15.30
2019-04-07T13:56:12.326Z,15.20
2019-04-07T13:58:51.915Z,15.30
2019-04-07T14:01:42.409Z,15.20
2019-04-07T14:04:24.217Z,15.30
2019-04-07T14:07:11.878Z,15.40
2019-04-07T14:09:50.690Z,15.30
2019-04-07T14:12:33.385Z,15.50
2019-04-07T14:15:10.342Z,15.60
2019-04-07T14:17:51.925Z,15.40
2019-04-07T14:20:27.223Z,15.10
2019-04-07T14:23:08.532Z,15.10
2019-04-07T14:25:52.682Z,15.10
2019-04-07T14:28:35.712Z,15.10
2019-04-07T14:31:11.076Z,14.90
2019-04-07T14:33:55.648Z,15.00
2019-04-07T14:37:24.243Z,15.10
2019-04-07T14:39:59.893Z,15.00
2019-04-07T14:42:35.254Z,14.80
2019-04-07T14:45:20.056Z,14.70
2019-04-07T14:48:10.933Z,14.70
2019-04-07T14:53:47.315Z,14.70
2019-04-07T14:56:24.208Z,14.80
2019-04-07T14:59:02.928Z,14.80
2019-04-07T15:01:39.578Z,14.70
2019-04-07T15:04:14.059Z,14.70
2019-04-07T15:07:28.345Z,14.70
2019-04-07T15:10:03.900Z,14.70
2019-04-07T15:12:39.279Z,14.80
2019-04-07T15:15:17.029Z,14.90
2019-04-07T15:17:51.223Z,15.00
2019-04-07T15:20:25.103Z,15.00
2019-04-07T15:23:00.234Z,15.00
2019-04-07T15:25:34.277Z,14.80
2019-04-07T15:28:08.913Z,14.70
2019-04-07T15:30:46.106Z,14.60
2019-04-07T15:33:18.815Z,14.60
2019-04-07T15:35:52.455Z,14.30
2019-04-07T15:38:27.177Z,14.10
2019-04-07T15:41:02.504Z,14.00
2019-04-07T15:43:37.216Z,14.00
2019-04-07T15:46:13.007Z,13.90
2019-04-07T15:48:48.426Z,13.90
2019-04-07T15:54:54.555Z,13.90
2019-04-07T15:57:29.041Z,13.80
2019-04-07T16:00:05.053Z,13.70
2019-04-07T16:02:41.219Z,13.70
2019-04-07T16:05:14.788Z,13.60
2019-04-07T16:11:34.899Z,13.50
2019-04-07T16:14:12.967Z,13.30
2019-04-07T16:16:44.084Z,13.20
2019-04-07T16:19:24.780Z,13.10
2019-04-07T16:21:54.841Z,13.00
2019-04-07T16:24:29.264Z,12.90
2019-04-07T16:27:05.413Z,12.90
2019-04-07T16:29:38.673Z,12.80
2019-04-07T16:32:12.476Z,12.80
2019-04-07T16:34:46.399Z,12.70
2019-04-07T16:37:20.368Z,12.60
2019-04-07T16:39:54.167Z,12.50
2019-04-07T16:42:28.654Z,12.50
2019-04-07T16:45:02.598Z,12.40
2019-04-07T16:47:37.156Z,12.30
2019-04-07T16:50:13.302Z,12.20
2019-04-07T16:52:47.210Z,12.10
2019-04-07T16:55:37.094Z,12.10
2019-04-07T16:58:11.745Z,12.00
2019-04-07T17:00:45.615Z,11.90
2019-04-07T17:03:19.447Z,11.80
2019-04-07T17:05:57.347Z,11.60
2019-04-07T17:08:28.848Z,11.50
2019-04-07T17:11:07.033Z,11.30
2019-04-07T17:13:41.852Z,11.10
2019-04-07T17:16:17.548Z,11.00
2019-04-07T17:18:51.079Z,10.90
2019-04-07T17:21:25.516Z,10.70
2019-04-07T17:23:59.349Z,10.60
2019-04-07T17:26:35.378Z,10.50
2019-04-07T17:29:08.927Z,10.30
2019-04-07T17:31:43.303Z,10.20
2019-04-07T17:34:17.397Z,10.20
2019-04-07T17:39:40.401Z,10.10
2019-04-07T17:42:14.398Z,10.10
2019-04-07T17:45:05.742Z,10.00
2019-04-07T17:47:47.460Z,9.90
2019-04-07T17:50:23.476Z,9.70
2019-04-07T17:56:43.133Z,9.40
2019-04-07T17:59:37.737Z,9.30
2019-04-07T18:02:29.357Z,9.10
2019-04-07T18:05:07.031Z,9.00
2019-04-07T18:07:51.845Z,8.90
2019-04-07T18:10:39.608Z,8.70
2019-04-07T18:13:16.600Z,8.70
2019-04-07T18:16:09.441Z,8.60
2019-04-07T18:18:48.656Z,8.50
2019-04-07T18:21:31.362Z,8.40
2019-04-07T18:24:19.065Z,8.40
2019-04-07T18:27:05.750Z,8.30
2019-04-07T18:29:41.691Z,8.30
2019-04-07T18:32:32.935Z,8.20
2019-04-07T18:35:17.585Z,8.20
2019-04-07T18:38:47.513Z,8.10
2019-04-07T18:41:38.228Z,8.00
2019-04-07T18:44:13.960Z,8.00
2019-04-07T18:46:58.191Z,7.90
2019-04-07T18:49:36.524Z,7.80
2019-04-07T18:55:28.788Z,7.70
2019-04-07T18:58:10.681Z,7.60
2019-04-07T19:00:45.505Z,7.60
2019-04-07T19:03:39.236Z,7.50
2019-04-07T19:06:23.653Z,7.50
2019-04-07T19:09:01.861Z,7.50
2019-04-07T19:11:37.391Z,7.40
2019-04-07T19:14:31.538Z,7.40
2019-04-07T19:16:52.512Z,7.40
2019-04-07T19:19:33.873Z,7.30
2019-04-07T19:22:20.074Z,7.30
2019-04-07T19:25:09.216Z,7.20
2019-04-07T19:27:44.731Z,7.20
2019-04-07T19:30:36.402Z,7.10
2019-04-07T19:33:12.166Z,7.10
2019-04-07T19:35:51.809Z,7.10
2019-04-07T19:38:43.450Z,7.00
2019-04-07T19:41:21.566Z,7.00
2019-04-07T19:43:57.049Z,6.90
2019-04-07T19:46:38.964Z,6.90
2019-04-07T19:49:30.803Z,6.90
2019-04-07T19:55:35.593Z,6.80
2019-04-07T19:58:14.139Z,6.80
2019-04-07T20:01:01.192Z,6.80
2019-04-07T20:03:47.253Z,6.70
2019-04-07T20:06:39.806Z,6.70
2019-04-07T20:09:18.059Z,6.70
2019-04-07T20:12:01.549Z,6.60
2019-04-07T20:14:52.708Z,6.60
2019-04-07T20:17:29.491Z,6.60
2019-04-07T20:20:12.596Z,6.60
2019-04-07T20:23:01.018Z,6.60
2019-04-07T20:25:50.789Z,6.60
2019-04-07T20:28:30.239Z,6.50
2019-04-07T20:31:12.637Z,6.50
2019-04-07T20:33:49.092Z,6.50
2019-04-07T20:36:42.248Z,6.50
2019-04-07T20:39:27.417Z,6.50
2019-04-07T20:42:13.445Z,6.50
2019-04-07T20:45:05.691Z,6.50
2019-04-07T20:48:00.122Z,6.50
2019-04-07T20:50:36.322Z,6.50
2019-04-07T20:53:22.247Z,6.50
2019-04-07T20:55:56.066Z,6.70
2019-04-07T20:58:45.587Z,6.80
2019-04-07T21:01:16.271Z,6.90
2019-04-07T21:03:50.285Z,6.90
2019-04-07T21:06:28.160Z,6.90
2019-04-07T21:09:10.908Z,6.90
2019-04-07T21:11:58.783Z,6.80
2019-04-07T21:14:37.012Z,6.70
2019-04-07T21:17:17.935Z,6.70
2019-04-07T21:20:10.763Z,6.70
2019-04-07T21:23:02.949Z,6.80
2019-04-07T21:25:47.323Z,6.80
2019-04-07T21:28:25.260Z,6.80
2019-04-07T21:31:17.836Z,6.70
2019-04-07T21:33:59.125Z,6.70
2019-04-07T21:36:39.310Z,6.60
2019-04-07T21:39:25.895Z,6.60
2019-04-07T21:42:02.939Z,6.50
2019-04-07T21:44:38.612Z,6.40
2019-04-07T21:47:29.369Z,6.30
2019-04-07T21:50:08.761Z,6.30
2019-04-07T21:52:43.030Z,6.20
2019-04-07T21:55:22.101Z,6.20
2019-04-07T21:57:58.758Z,6.10
2019-04-07T22:00:34.939Z,6.10
2019-04-07T22:03:25.531Z,6.10
2019-04-07T22:06:07.002Z,6.00
2019-04-07T22:08:46.677Z,6.00
2019-04-07T22:11:24.703Z,6.00
2019-04-07T22:13:59.013Z,6.00
2019-04-07T22:16:33.138Z,6.00
2019-04-07T22:19:11.053Z,6.00
2019-04-07T22:21:44.515Z,6.00
2019-04-07T22:24:18.829Z,5.90
2019-04-07T22:26:53.132Z,5.90
2019-04-07T22:29:27.002Z,5.80
2019-04-07T22:32:01.137Z,5.80
2019-04-07T22:34:35.631Z,5.80
2019-04-07T22:37:10.122Z,5.80
2019-04-07T22:39:45.532Z,5.70
2019-04-07T22:42:19.516Z,5.70
2019-04-07T22:44:54.745Z,5.60
2019-04-07T22:47:29.450Z,5.60
2019-04-07T22:50:05.343Z,5.50
2019-04-07T22:52:39.175Z,5.50
2019-04-07T22:55:13.063Z,5.40
2019-04-07T22:57:46.842Z,5.40
2019-04-07T23:00:25.236Z,5.40
2019-04-07T23:02:59.498Z,5.30
2019-04-07T23:05:33.915Z,5.30
2019-04-07T23:08:08.280Z,5.20
2019-04-07T23:10:42.637Z,5.20
2019-04-07T23:13:16.328Z,5.20
2019-04-07T23:15:50.369Z,5.10
2019-04-07T23:18:24.326Z,5.10
2019-04-07T23:20:58.180Z,5.10
2019-04-07T23:23:32.279Z,5.00
2019-04-07T23:26:06.131Z,5.10
2019-04-07T23:28:40.252Z,5.00
2019-04-07T23:31:16.140Z,5.00
2019-04-07T23:33:50.198Z,5.00
2019-04-07T23:36:24.229Z,4.90
2019-04-07T23:38:58.127Z,4.90
2019-04-07T23:41:32.131Z,4.90
2019-04-07T23:44:06.012Z,4.90
2019-04-07T23:46:40.103Z,4.80
2019-04-07T23:49:13.865Z,4.80
2019-04-07T23:51:48.361Z,4.90
2019-04-07T23:54:22.584Z,4.80
2019-04-07T23:56:58.164Z,4.80
2019-04-07T23:59:32.545Z,4.80
